sensor_id;sensor_type;location;lat;lon;timestamp;P1;durP1;ratioP1;P2;durP2;ratioP2
73557;SDS011;61829;53.286;10.434;2022-09-13T00:01:05;4.70;;;2.70;;
73557;SDS011;61829;53.286;10.434;2022-09-13T00:03:36;5.63;;;2.70;;
73557;SDS011;61829;53.286;10.434;2022-09-13T00:06:07;5.20;;;2.85;;
73557;SDS011;61829;53.286;10.434;2022-09-13T00:08:37;4.57;;;2.72;;
73557;SDS011;61829;53.286;10.434;2022-09-13T00:11:03;4.85;;;2.80;;
73557;SDS011;61829;53.286;10.434;2022-09-13T00:13:29;5.05;;;2.30;;
73557;SDS011;61829;53.286;10.434;2022-09-13T00:15:55;4.82;;;2.78;;
73557;SDS011;61829;53.286;10.434;2022-09-13T00:18:22;5.03;;;2.67;;
73557;SDS011;61829;53.286;10.434;2022-09-13T00:20:49;7.10;;;2.67;;
73557;SDS011;61829;53.286;10.434;2022-09-13T00:23:28;3.83;;;2.40;;
73557;SDS011;61829;53.286;10.434;2022-09-13T00:26:01;4.95;;;2.53;;
73557;SDS011;61829;53.286;10.434;2022-09-13T00:28:28;4.10;;;2.45;;
73557;SDS011;61829;53.286;10.434;2022-09-13T00:30:58;4.80;;;2.92;;
73557;SDS011;61829;53.286;10.434;2022-09-13T00:33:25;5.40;;;2.63;;
73557;SDS011;61829;53.286;10.434;2022-09-13T00:35:51;6.00;;;2.92;;
73557;SDS011;61829;53.286;10.434;2022-09-13T00:38:17;4.32;;;2.67;;
73557;SDS011;61829;53.286;10.434;2022-09-13T00:40:43;4.95;;;2.45;;
73557;SDS011;61829;53.286;10.434;2022-09-13T00:43:52;4.07;;;2.90;;
73557;SDS011;61829;53.286;10.434;2022-09-13T00:46:33;5.00;;;2.45;;
73557;SDS011;61829;53.286;10.434;2022-09-13T00:49:02;4.93;;;2.40;;
73557;SDS011;61829;53.286;10.434;2022-09-13T00:51:37;5.03;;;2.20;;
73557;SDS011;61829;53.286;10.434;2022-09-13T00:54:05;4.15;;;2.55;;
73557;SDS011;61829;53.286;10.434;2022-09-13T00:56:35;7.07;;;2.55;;
73557;SDS011;61829;53.286;10.434;2022-09-13T00:59:06;3.88;;;2.80;;
73557;SDS011;61829;53.286;10.434;2022-09-13T01:01:40;5.70;;;2.97;;
73557;SDS011;61829;53.286;10.434;2022-09-13T01:04:20;3.65;;;2.42;;
73557;SDS011;61829;53.286;10.434;2022-09-13T01:06:50;4.10;;;2.47;;
73557;SDS011;61829;53.286;10.434;2022-09-13T01:09:21;4.38;;;2.78;;
73557;SDS011;61829;53.286;10.434;2022-09-13T01:11:52;4.90;;;2.72;;
73557;SDS011;61829;53.286;10.434;2022-09-13T01:14:24;3.88;;;2.67;;
73557;SDS011;61829;53.286;10.434;2022-09-13T01:16:52;4.82;;;2.80;;
73557;SDS011;61829;53.286;10.434;2022-09-13T01:19:21;3.63;;;2.40;;
73557;SDS011;61829;53.286;10.434;2022-09-13T01:35:38;5.65;;;3.15;;
73557;SDS011;61829;53.286;10.434;2022-09-13T01:52:07;8.93;;;3.72;;
73557;SDS011;61829;53.286;10.434;2022-09-13T01:55:02;7.68;;;4.55;;
73557;SDS011;61829;53.286;10.434;2022-09-13T02:00:04;6.05;;;3.30;;
73557;SDS011;61829;53.286;10.434;2022-09-13T02:02:36;5.78;;;3.55;;
73557;SDS011;61829;53.286;10.434;2022-09-13T02:05:25;7.97;;;3.65;;
73557;SDS011;61829;53.286;10.434;2022-09-13T02:10:57;7.95;;;3.83;;
73557;SDS011;61829;53.286;10.434;2022-09-13T02:13:31;5.35;;;3.97;;
73557;SDS011;61829;53.286;10.434;2022-09-13T02:16:05;5.70;;;3.67;;
73557;SDS011;61829;53.286;10.434;2022-09-13T02:18:38;6.50;;;4.32;;
73557;SDS011;61829;53.286;10.434;2022-09-13T02:21:49;6.35;;;3.63;;
73557;SDS011;61829;53.286;10.434;2022-09-13T02:24:09;6.63;;;4.20;;
73557;SDS011;61829;53.286;10.434;2022-09-13T02:26:40;6.78;;;4.30;;
73557;SDS011;61829;53.286;10.434;2022-09-13T02:29:08;13.10;;;5.28;;
73557;SDS011;61829;53.286;10.434;2022-09-13T02:31:44;6.40;;;4.47;;
73557;SDS011;61829;53.286;10.434;2022-09-13T02:34:22;6.30;;;3.97;;
73557;SDS011;61829;53.286;10.434;2022-09-13T02:36:56;6.65;;;4.28;;
73557;SDS011;61829;53.286;10.434;2022-09-13T02:39:26;5.55;;;4.13;;
73557;SDS011;61829;53.286;10.434;2022-09-13T02:44:37;10.40;;;4.53;;
73557;SDS011;61829;53.286;10.434;2022-09-13T02:50:31;8.30;;;5.00;;
73557;SDS011;61829;53.286;10.434;2022-09-13T03:01:12;9.40;;;5.10;;
73557;SDS011;61829;53.286;10.434;2022-09-13T03:03:39;7.78;;;5.18;;
73557;SDS011;61829;53.286;10.434;2022-09-13T03:06:05;7.97;;;5.28;;
73557;SDS011;61829;53.286;10.434;2022-09-13T03:08:32;8.30;;;4.95;;
73557;SDS011;61829;53.286;10.434;2022-09-13T03:30:25;9.27;;;5.60;;
73557;SDS011;61829;53.286;10.434;2022-09-13T03:35:41;10.23;;;5.45;;
73557;SDS011;61829;53.286;10.434;2022-09-13T03:38:14;9.73;;;5.72;;
73557;SDS011;61829;53.286;10.434;2022-09-13T03:43:37;8.70;;;5.30;;
73557;SDS011;61829;53.286;10.434;2022-09-13T03:46:10;8.93;;;5.80;;
73557;SDS011;61829;53.286;10.434;2022-09-13T03:48:39;10.70;;;6.25;;
73557;SDS011;61829;53.286;10.434;2022-09-13T03:51:08;11.20;;;6.30;;
73557;SDS011;61829;53.286;10.434;2022-09-13T03:53:40;9.13;;;5.97;;
73557;SDS011;61829;53.286;10.434;2022-09-13T03:56:14;11.10;;;6.05;;
73557;SDS011;61829;53.286;10.434;2022-09-13T03:58:42;8.88;;;5.75;;
73557;SDS011;61829;53.286;10.434;2022-09-13T04:01:08;12.15;;;6.10;;
73557;SDS011;61829;53.286;10.434;2022-09-13T04:03:35;10.55;;;6.30;;
73557;SDS011;61829;53.286;10.434;2022-09-13T04:06:02;10.95;;;6.40;;
73557;SDS011;61829;53.286;10.434;2022-09-13T04:08:29;8.88;;;5.82;;
73557;SDS011;61829;53.286;10.434;2022-09-13T04:10:56;9.35;;;6.00;;
73557;SDS011;61829;53.286;10.434;2022-09-13T04:13:22;9.27;;;5.95;;
73557;SDS011;61829;53.286;10.434;2022-09-13T04:15:48;9.25;;;6.22;;
73557;SDS011;61829;53.286;10.434;2022-09-13T04:18:15;9.25;;;5.93;;
73557;SDS011;61829;53.286;10.434;2022-09-13T04:20:41;13.13;;;6.65;;
73557;SDS011;61829;53.286;10.434;2022-09-13T04:23:08;10.10;;;6.45;;
73557;SDS011;61829;53.286;10.434;2022-09-13T04:25:37;10.57;;;6.55;;
73557;SDS011;61829;53.286;10.434;2022-09-13T04:28:04;10.43;;;6.43;;
73557;SDS011;61829;53.286;10.434;2022-09-13T04:30:31;11.27;;;6.55;;
73557;SDS011;61829;53.286;10.434;2022-09-13T04:32:57;12.70;;;6.25;;
73557;SDS011;61829;53.286;10.434;2022-09-13T04:35:24;9.60;;;6.35;;
73557;SDS011;61829;53.286;10.434;2022-09-13T04:37:50;12.02;;;6.30;;
73557;SDS011;61829;53.286;10.434;2022-09-13T04:40:20;12.48;;;7.22;;
73557;SDS011;61829;53.286;10.434;2022-09-13T04:42:47;11.15;;;6.90;;
73557;SDS011;61829;53.286;10.434;2022-09-13T04:45:13;10.85;;;7.47;;
73557;SDS011;61829;53.286;10.434;2022-09-13T04:47:39;10.82;;;6.97;;
73557;SDS011;61829;53.286;10.434;2022-09-13T04:50:05;12.00;;;6.90;;
73557;SDS011;61829;53.286;10.434;2022-09-13T04:52:32;9.73;;;6.03;;
73557;SDS011;61829;53.286;10.434;2022-09-13T04:54:58;12.40;;;7.35;;
73557;SDS011;61829;53.286;10.434;2022-09-13T04:57:26;8.57;;;5.78;;
73557;SDS011;61829;53.286;10.434;2022-09-13T04:59:53;13.30;;;6.85;;
73557;SDS011;61829;53.286;10.434;2022-09-13T05:02:19;10.52;;;6.28;;
73557;SDS011;61829;53.286;10.434;2022-09-13T05:04:45;12.88;;;6.95;;
73557;SDS011;61829;53.286;10.434;2022-09-13T05:07:12;10.70;;;6.32;;
73557;SDS011;61829;53.286;10.434;2022-09-13T05:09:38;12.40;;;7.13;;
73557;SDS011;61829;53.286;10.434;2022-09-13T05:12:04;12.02;;;6.82;;
73557;SDS011;61829;53.286;10.434;2022-09-13T05:14:30;9.68;;;7.00;;
73557;SDS011;61829;53.286;10.434;2022-09-13T05:16:56;11.90;;;6.85;;
73557;SDS011;61829;53.286;10.434;2022-09-13T05:19:22;11.95;;;7.18;;
73557;SDS011;61829;53.286;10.434;2022-09-13T05:21:48;10.68;;;7.13;;
73557;SDS011;61829;53.286;10.434;2022-09-13T05:24:14;10.82;;;7.38;;
73557;SDS011;61829;53.286;10.434;2022-09-13T05:26:40;13.00;;;7.88;;
73557;SDS011;61829;53.286;10.434;2022-09-13T05:29:06;12.65;;;7.57;;
73557;SDS011;61829;53.286;10.434;2022-09-13T05:31:35;14.32;;;8.40;;
73557;SDS011;61829;53.286;10.434;2022-09-13T05:34:04;11.32;;;7.65;;
73557;SDS011;61829;53.286;10.434;2022-09-13T05:36:36;12.98;;;7.28;;
73557;SDS011;61829;53.286;10.434;2022-09-13T05:39:02;10.27;;;7.25;;
73557;SDS011;61829;53.286;10.434;2022-09-13T05:41:29;12.77;;;7.88;;
73557;SDS011;61829;53.286;10.434;2022-09-13T05:43:56;14.05;;;8.48;;
73557;SDS011;61829;53.286;10.434;2022-09-13T05:46:22;13.57;;;8.20;;
73557;SDS011;61829;53.286;10.434;2022-09-13T05:48:48;13.05;;;8.48;;
73557;SDS011;61829;53.286;10.434;2022-09-13T05:51:16;14.15;;;8.63;;
73557;SDS011;61829;53.286;10.434;2022-09-13T05:53:54;14.30;;;8.43;;
73557;SDS011;61829;53.286;10.434;2022-09-13T05:56:22;14.25;;;8.45;;
73557;SDS011;61829;53.286;10.434;2022-09-13T05:58:50;15.80;;;8.85;;
73557;SDS011;61829;53.286;10.434;2022-09-13T06:01:21;13.48;;;8.38;;
73557;SDS011;61829;53.286;10.434;2022-09-13T06:03:50;15.13;;;9.65;;
73557;SDS011;61829;53.286;10.434;2022-09-13T06:06:17;14.23;;;9.27;;
73557;SDS011;61829;53.286;10.434;2022-09-13T06:08:45;13.30;;;8.63;;
73557;SDS011;61829;53.286;10.434;2022-09-13T06:11:12;14.90;;;9.20;;
73557;SDS011;61829;53.286;10.434;2022-09-13T06:13:39;15.38;;;8.85;;
73557;SDS011;61829;53.286;10.434;2022-09-13T06:16:07;13.88;;;9.05;;
73557;SDS011;61829;53.286;10.434;2022-09-13T06:18:35;17.88;;;10.38;;
73557;SDS011;61829;53.286;10.434;2022-09-13T06:21:03;17.92;;;9.57;;
73557;SDS011;61829;53.286;10.434;2022-09-13T06:23:30;14.13;;;9.10;;
73557;SDS011;61829;53.286;10.434;2022-09-13T06:26:10;15.15;;;9.93;;
73557;SDS011;61829;53.286;10.434;2022-09-13T06:28:38;17.17;;;9.98;;
73557;SDS011;61829;53.286;10.434;2022-09-13T06:31:06;18.80;;;10.43;;
73557;SDS011;61829;53.286;10.434;2022-09-13T06:33:37;17.67;;;10.07;;
73557;SDS011;61829;53.286;10.434;2022-09-13T06:36:06;16.67;;;10.43;;
73557;SDS011;61829;53.286;10.434;2022-09-13T06:38:34;15.80;;;9.88;;
73557;SDS011;61829;53.286;10.434;2022-09-13T06:43:27;18.80;;;10.82;;
73557;SDS011;61829;53.286;10.434;2022-09-13T06:45:57;18.70;;;9.98;;
73557;SDS011;61829;53.286;10.434;2022-09-13T06:48:25;16.73;;;10.63;;
73557;SDS011;61829;53.286;10.434;2022-09-13T06:51:06;19.13;;;10.35;;
73557;SDS011;61829;53.286;10.434;2022-09-13T06:53:34;20.15;;;10.25;;
73557;SDS011;61829;53.286;10.434;2022-09-13T06:58:36;17.40;;;10.35;;
73557;SDS011;61829;53.286;10.434;2022-09-13T07:03:37;17.92;;;10.60;;
73557;SDS011;61829;53.286;10.434;2022-09-13T07:06:24;18.15;;;10.43;;
73557;SDS011;61829;53.286;10.434;2022-09-13T07:08:52;18.85;;;11.13;;
73557;SDS011;61829;53.286;10.434;2022-09-13T07:11:22;15.30;;;9.52;;
73557;SDS011;61829;53.286;10.434;2022-09-13T07:13:50;18.83;;;10.93;;
73557;SDS011;61829;53.286;10.434;2022-09-13T07:16:18;19.08;;;10.40;;
73557;SDS011;61829;53.286;10.434;2022-09-13T07:18:55;19.77;;;11.30;;
73557;SDS011;61829;53.286;10.434;2022-09-13T07:21:24;17.75;;;10.55;;
73557;SDS011;61829;53.286;10.434;2022-09-13T07:23:51;16.42;;;10.40;;
73557;SDS011;61829;53.286;10.434;2022-09-13T07:26:18;17.65;;;10.48;;
73557;SDS011;61829;53.286;10.434;2022-09-13T07:28:46;18.20;;;10.73;;
73557;SDS011;61829;53.286;10.434;2022-09-13T07:33:40;15.40;;;9.52;;
73557;SDS011;61829;53.286;10.434;2022-09-13T07:36:07;17.88;;;11.10;;
73557;SDS011;61829;53.286;10.434;2022-09-13T07:41:01;17.70;;;10.52;;
73557;SDS011;61829;53.286;10.434;2022-09-13T07:43:31;16.17;;;9.20;;
73557;SDS011;61829;53.286;10.434;2022-09-13T07:45:59;16.17;;;9.77;;
73557;SDS011;61829;53.286;10.434;2022-09-13T07:48:27;15.05;;;9.07;;
73557;SDS011;61829;53.286;10.434;2022-09-13T07:53:24;12.77;;;8.60;;
73557;SDS011;61829;53.286;10.434;2022-09-13T07:55:50;14.45;;;9.18;;
73557;SDS011;61829;53.286;10.434;2022-09-13T07:58:16;15.70;;;8.90;;
73557;SDS011;61829;53.286;10.434;2022-09-13T08:00:43;13.82;;;9.05;;
73557;SDS011;61829;53.286;10.434;2022-09-13T08:03:10;15.18;;;8.80;;
73557;SDS011;61829;53.286;10.434;2022-09-13T08:05:42;14.15;;;8.98;;
73557;SDS011;61829;53.286;10.434;2022-09-13T08:08:08;12.20;;;8.27;;
73557;SDS011;61829;53.286;10.434;2022-09-13T08:13:42;13.65;;;8.02;;
73557;SDS011;61829;53.286;10.434;2022-09-13T08:16:08;15.20;;;8.10;;
73557;SDS011;61829;53.286;10.434;2022-09-13T08:18:34;14.50;;;8.10;;
73557;SDS011;61829;53.286;10.434;2022-09-13T08:21:00;12.30;;;7.78;;
73557;SDS011;61829;53.286;10.434;2022-09-13T08:23:27;13.82;;;8.35;;
73557;SDS011;61829;53.286;10.434;2022-09-13T08:25:58;12.77;;;8.02;;
73557;SDS011;61829;53.286;10.434;2022-09-13T08:28:27;13.25;;;7.18;;
73557;SDS011;61829;53.286;10.434;2022-09-13T08:30:53;14.35;;;7.65;;
73557;SDS011;61829;53.286;10.434;2022-09-13T08:33:19;10.60;;;6.97;;
73557;SDS011;61829;53.286;10.434;2022-09-13T08:35:51;10.10;;;6.40;;
73557;SDS011;61829;53.286;10.434;2022-09-13T08:38:18;10.57;;;6.63;;
73557;SDS011;61829;53.286;10.434;2022-09-13T08:40:46;10.30;;;6.32;;
73557;SDS011;61829;53.286;10.434;2022-09-13T08:45:47;10.07;;;6.07;;
73557;SDS011;61829;53.286;10.434;2022-09-13T08:48:31;10.43;;;5.95;;
73557;SDS011;61829;53.286;10.434;2022-09-13T08:51:02;8.65;;;5.65;;
73557;SDS011;61829;53.286;10.434;2022-09-13T08:53:35;12.48;;;6.60;;
73557;SDS011;61829;53.286;10.434;2022-09-13T08:56:10;10.90;;;5.78;;
73557;SDS011;61829;53.286;10.434;2022-09-13T09:06:45;11.88;;;5.53;;
73557;SDS011;61829;53.286;10.434;2022-09-13T09:09:13;10.38;;;5.68;;
73557;SDS011;61829;53.286;10.434;2022-09-13T09:17:03;9.32;;;5.85;;
73557;SDS011;61829;53.286;10.434;2022-09-13T09:19:33;10.70;;;6.55;;
73557;SDS011;61829;53.286;10.434;2022-09-13T09:22:03;11.43;;;6.05;;
73557;SDS011;61829;53.286;10.434;2022-09-13T09:24:33;10.45;;;6.18;;
73557;SDS011;61829;53.286;10.434;2022-09-13T09:27:04;10.18;;;6.50;;
73557;SDS011;61829;53.286;10.434;2022-09-13T09:29:41;11.40;;;5.68;;
73557;SDS011;61829;53.286;10.434;2022-09-13T09:38:01;11.45;;;6.03;;
73557;SDS011;61829;53.286;10.434;2022-09-13T09:43:00;8.60;;;4.70;;
73557;SDS011;61829;53.286;10.434;2022-09-13T09:45:35;10.18;;;4.75;;
73557;SDS011;61829;53.286;10.434;2022-09-13T09:48:07;11.77;;;4.13;;
73557;SDS011;61829;53.286;10.434;2022-09-13T09:50:43;9.25;;;3.22;;
73557;SDS011;61829;53.286;10.434;2022-09-13T10:01:05;6.30;;;2.78;;
73557;SDS011;61829;53.286;10.434;2022-09-13T10:03:39;5.43;;;2.55;;
73557;SDS011;61829;53.286;10.434;2022-09-13T10:08:36;7.18;;;1.92;;
73557;SDS011;61829;53.286;10.434;2022-09-13T10:11:05;6.32;;;1.98;;
73557;SDS011;61829;53.286;10.434;2022-09-13T10:16:01;4.15;;;1.45;;
73557;SDS011;61829;53.286;10.434;2022-09-13T10:18:30;5.85;;;1.75;;
73557;SDS011;61829;53.286;10.434;2022-09-13T10:23:42;6.22;;;1.60;;
73557;SDS011;61829;53.286;10.434;2022-09-13T10:26:16;4.82;;;1.65;;
73557;SDS011;61829;53.286;10.434;2022-09-13T10:31:32;6.38;;;1.60;;
73557;SDS011;61829;53.286;10.434;2022-09-13T10:36:52;5.70;;;1.30;;
73557;SDS011;61829;53.286;10.434;2022-09-13T10:39:22;3.67;;;1.25;;
73557;SDS011;61829;53.286;10.434;2022-09-13T10:41:52;5.13;;;1.52;;
73557;SDS011;61829;53.286;10.434;2022-09-13T10:44:24;8.57;;;1.75;;
73557;SDS011;61829;53.286;10.434;2022-09-13T10:47:09;5.97;;;1.25;;
73557;SDS011;61829;53.286;10.434;2022-09-13T10:52:29;7.75;;;1.40;;
73557;SDS011;61829;53.286;10.434;2022-09-13T10:57:45;4.90;;;1.52;;
73557;SDS011;61829;53.286;10.434;2022-09-13T11:00:24;6.32;;;1.25;;
73557;SDS011;61829;53.286;10.434;2022-09-13T11:18:52;2.92;;;1.15;;
73557;SDS011;61829;53.286;10.434;2022-09-13T11:26:59;5.03;;;1.15;;
73557;SDS011;61829;53.286;10.434;2022-09-13T11:38:34;8.60;;;1.60;;
73557;SDS011;61829;53.286;10.434;2022-09-13T11:52:10;9.68;;;1.00;;
73557;SDS011;61829;53.286;10.434;2022-09-13T11:54:58;3.70;;;0.90;;
73557;SDS011;61829;53.286;10.434;2022-09-13T11:57:32;4.50;;;0.82;;
73557;SDS011;61829;53.286;10.434;2022-09-13T12:02:58;3.25;;;1.00;;
73557;SDS011;61829;53.286;10.434;2022-09-13T12:05:33;2.88;;;0.80;;
73557;SDS011;61829;53.286;10.434;2022-09-13T12:10:54;2.38;;;0.73;;
73557;SDS011;61829;53.286;10.434;2022-09-13T12:13:25;3.70;;;0.80;;
73557;SDS011;61829;53.286;10.434;2022-09-13T12:15:58;5.25;;;1.20;;
73557;SDS011;61829;53.286;10.434;2022-09-13T12:18:28;6.68;;;1.20;;
73557;SDS011;61829;53.286;10.434;2022-09-13T12:21:03;4.30;;;1.00;;
73557;SDS011;61829;53.286;10.434;2022-09-13T12:26:04;5.75;;;1.10;;
73557;SDS011;61829;53.286;10.434;2022-09-13T12:28:47;4.40;;;1.20;;
73557;SDS011;61829;53.286;10.434;2022-09-13T12:31:19;3.67;;;0.88;;
73557;SDS011;61829;53.286;10.434;2022-09-13T12:33:49;2.92;;;1.00;;
73557;SDS011;61829;53.286;10.434;2022-09-13T12:44:19;3.40;;;0.90;;
73557;SDS011;61829;53.286;10.434;2022-09-13T12:53:02;5.30;;;1.00;;
73557;SDS011;61829;53.286;10.434;2022-09-13T13:03:53;4.35;;;0.98;;
73557;SDS011;61829;53.286;10.434;2022-09-13T13:06:53;5.47;;;1.17;;
73557;SDS011;61829;53.286;10.434;2022-09-13T13:09:31;4.72;;;1.05;;
73557;SDS011;61829;53.286;10.434;2022-09-13T13:12:05;4.95;;;0.80;;
73557;SDS011;61829;53.286;10.434;2022-09-13T13:36:46;3.10;;;0.80;;
73557;SDS011;61829;53.286;10.434;2022-09-13T13:46:48;2.67;;;0.80;;
73557;SDS011;61829;53.286;10.434;2022-09-13T14:00:17;2.95;;;0.88;;
73557;SDS011;61829;53.286;10.434;2022-09-13T14:19:23;4.43;;;1.08;;
73557;SDS011;61829;53.286;10.434;2022-09-13T14:24:46;4.25;;;0.85;;
73557;SDS011;61829;53.286;10.434;2022-09-13T14:27:21;5.95;;;1.20;;
73557;SDS011;61829;53.286;10.434;2022-09-13T14:29:53;4.50;;;0.95;;
73557;SDS011;61829;53.286;10.434;2022-09-13T14:32:26;3.78;;;0.90;;
73557;SDS011;61829;53.286;10.434;2022-09-13T14:37:26;4.55;;;1.10;;
73557;SDS011;61829;53.286;10.434;2022-09-13T14:40:10;4.22;;;0.93;;
73557;SDS011;61829;53.286;10.434;2022-09-13T14:42:43;4.05;;;1.17;;
73557;SDS011;61829;53.286;10.434;2022-09-13T14:45:14;4.13;;;0.88;;
73557;SDS011;61829;53.286;10.434;2022-09-13T14:50:13;7.38;;;0.80;;
73557;SDS011;61829;53.286;10.434;2022-09-13T14:52:52;3.85;;;0.98;;
73557;SDS011;61829;53.286;10.434;2022-09-13T14:55:25;3.42;;;0.90;;
73557;SDS011;61829;53.286;10.434;2022-09-13T14:57:59;2.58;;;0.70;;
73557;SDS011;61829;53.286;10.434;2022-09-13T15:00:33;4.97;;;0.88;;
73557;SDS011;61829;53.286;10.434;2022-09-13T15:03:11;8.25;;;1.17;;
73557;SDS011;61829;53.286;10.434;2022-09-13T15:05:40;5.88;;;0.80;;
73557;SDS011;61829;53.286;10.434;2022-09-13T15:11:06;4.38;;;0.88;;
73557;SDS011;61829;53.286;10.434;2022-09-13T15:13:39;4.35;;;0.98;;
73557;SDS011;61829;53.286;10.434;2022-09-13T15:16:29;4.10;;;0.85;;
73557;SDS011;61829;53.286;10.434;2022-09-13T15:21:42;4.25;;;0.90;;
73557;SDS011;61829;53.286;10.434;2022-09-13T15:24:28;4.03;;;0.90;;
73557;SDS011;61829;53.286;10.434;2022-09-13T15:27:03;5.22;;;1.23;;
73557;SDS011;61829;53.286;10.434;2022-09-13T15:29:31;8.48;;;1.50;;
73557;SDS011;61829;53.286;10.434;2022-09-13T15:32:00;3.05;;;0.90;;
73557;SDS011;61829;53.286;10.434;2022-09-13T15:34:26;6.28;;;0.90;;
73557;SDS011;61829;53.286;10.434;2022-09-13T15:37:09;4.80;;;0.93;;
73557;SDS011;61829;53.286;10.434;2022-09-13T15:39:44;5.05;;;0.80;;
73557;SDS011;61829;53.286;10.434;2022-09-13T15:42:12;6.30;;;1.00;;
73557;SDS011;61829;53.286;10.434;2022-09-13T15:44:38;4.97;;;0.95;;
73557;SDS011;61829;53.286;10.434;2022-09-13T15:47:09;3.22;;;0.80;;
73557;SDS011;61829;53.286;10.434;2022-09-13T15:49:40;4.55;;;0.88;;
73557;SDS011;61829;53.286;10.434;2022-09-13T15:52:14;3.97;;;1.05;;
73557;SDS011;61829;53.286;10.434;2022-09-13T15:57:45;6.18;;;1.63;;
73557;SDS011;61829;53.286;10.434;2022-09-13T16:00:19;6.10;;;1.25;;
73557;SDS011;61829;53.286;10.434;2022-09-13T16:02:47;3.45;;;0.88;;
73557;SDS011;61829;53.286;10.434;2022-09-13T16:05:13;4.93;;;1.10;;
73557;SDS011;61829;53.286;10.434;2022-09-13T16:07:39;8.38;;;1.30;;
73557;SDS011;61829;53.286;10.434;2022-09-13T16:10:15;7.72;;;1.58;;
73557;SDS011;61829;53.286;10.434;2022-09-13T16:13:00;6.18;;;1.33;;
73557;SDS011;61829;53.286;10.434;2022-09-13T16:15:34;4.93;;;1.27;;
73557;SDS011;61829;53.286;10.434;2022-09-13T16:18:00;9.63;;;1.50;;
73557;SDS011;61829;53.286;10.434;2022-09-13T16:20:26;7.38;;;1.30;;
73557;SDS011;61829;53.286;10.434;2022-09-13T16:22:53;7.47;;;1.50;;
73557;SDS011;61829;53.286;10.434;2022-09-13T16:25:19;7.40;;;1.08;;
73557;SDS011;61829;53.286;10.434;2022-09-13T16:27:45;9.18;;;1.23;;
73557;SDS011;61829;53.286;10.434;2022-09-13T16:30:12;4.82;;;1.10;;
73557;SDS011;61829;53.286;10.434;2022-09-13T16:32:41;6.05;;;1.17;;
73557;SDS011;61829;53.286;10.434;2022-09-13T16:35:08;4.93;;;1.30;;
73557;SDS011;61829;53.286;10.434;2022-09-13T16:37:36;8.77;;;1.35;;
73557;SDS011;61829;53.286;10.434;2022-09-13T16:40:03;6.88;;;1.25;;
73557;SDS011;61829;53.286;10.434;2022-09-13T16:42:29;7.45;;;1.20;;
73557;SDS011;61829;53.286;10.434;2022-09-13T16:44:55;7.63;;;1.30;;
73557;SDS011;61829;53.286;10.434;2022-09-13T16:47:24;5.57;;;1.23;;
73557;SDS011;61829;53.286;10.434;2022-09-13T16:49:50;4.70;;;1.25;;
73557;SDS011;61829;53.286;10.434;2022-09-13T16:52:17;6.45;;;1.00;;
73557;SDS011;61829;53.286;10.434;2022-09-13T16:54:43;11.90;;;1.52;;
73557;SDS011;61829;53.286;10.434;2022-09-13T16:57:13;9.82;;;1.20;;
73557;SDS011;61829;53.286;10.434;2022-09-13T16:59:39;5.50;;;0.98;;
73557;SDS011;61829;53.286;10.434;2022-09-13T17:02:07;10.40;;;1.20;;
73557;SDS011;61829;53.286;10.434;2022-09-13T17:04:35;7.55;;;1.35;;
73557;SDS011;61829;53.286;10.434;2022-09-13T17:07:01;7.10;;;1.30;;
73557;SDS011;61829;53.286;10.434;2022-09-13T17:09:30;6.18;;;1.13;;
73557;SDS011;61829;53.286;10.434;2022-09-13T17:11:57;7.40;;;1.02;;
73557;SDS011;61829;53.286;10.434;2022-09-13T17:14:24;5.97;;;1.00;;
73557;SDS011;61829;53.286;10.434;2022-09-13T17:25:54;5.47;;;1.10;;
73557;SDS011;61829;53.286;10.434;2022-09-13T17:28:20;7.57;;;1.60;;
73557;SDS011;61829;53.286;10.434;2022-09-13T17:30:46;7.65;;;1.20;;
73557;SDS011;61829;53.286;10.434;2022-09-13T17:33:12;9.13;;;1.48;;
73557;SDS011;61829;53.286;10.434;2022-09-13T17:35:38;4.95;;;1.10;;
73557;SDS011;61829;53.286;10.434;2022-09-13T17:38:04;12.48;;;1.70;;
73557;SDS011;61829;53.286;10.434;2022-09-13T17:40:31;5.47;;;1.63;;
73557;SDS011;61829;53.286;10.434;2022-09-13T17:42:57;5.15;;;1.20;;
73557;SDS011;61829;53.286;10.434;2022-09-13T17:45:24;10.15;;;1.30;;
73557;SDS011;61829;53.286;10.434;2022-09-13T17:47:54;4.63;;;1.05;;
73557;SDS011;61829;53.286;10.434;2022-09-13T17:50:21;5.22;;;1.10;;
73557;SDS011;61829;53.286;10.434;2022-09-13T17:52:47;8.60;;;1.48;;
73557;SDS011;61829;53.286;10.434;2022-09-13T17:55:13;6.68;;;1.38;;
73557;SDS011;61829;53.286;10.434;2022-09-13T17:57:42;6.90;;;1.40;;
73557;SDS011;61829;53.286;10.434;2022-09-13T18:00:07;5.80;;;1.15;;
73557;SDS011;61829;53.286;10.434;2022-09-13T18:02:37;7.53;;;1.30;;
73557;SDS011;61829;53.286;10.434;2022-09-13T18:05:03;7.47;;;1.20;;
73557;SDS011;61829;53.286;10.434;2022-09-13T18:07:33;6.07;;;1.20;;
73557;SDS011;61829;53.286;10.434;2022-09-13T18:09:59;5.60;;;1.10;;
73557;SDS011;61829;53.286;10.434;2022-09-13T18:12:26;7.18;;;1.42;;
73557;SDS011;61829;53.286;10.434;2022-09-13T18:14:51;10.05;;;2.35;;
73557;SDS011;61829;53.286;10.434;2022-09-13T18:17:18;6.60;;;1.50;;
73557;SDS011;61829;53.286;10.434;2022-09-13T18:19:43;7.93;;;1.45;;
73557;SDS011;61829;53.286;10.434;2022-09-13T18:22:10;5.07;;;1.45;;
73557;SDS011;61829;53.286;10.434;2022-09-13T18:24:36;5.75;;;1.15;;
73557;SDS011;61829;53.286;10.434;2022-09-13T18:27:02;8.27;;;1.83;;
73557;SDS011;61829;53.286;10.434;2022-09-13T18:29:32;6.63;;;1.70;;
73557;SDS011;61829;53.286;10.434;2022-09-13T18:31:58;6.43;;;1.25;;
73557;SDS011;61829;53.286;10.434;2022-09-13T18:34:24;7.88;;;1.30;;
73557;SDS011;61829;53.286;10.434;2022-09-13T18:36:50;7.30;;;1.40;;
73557;SDS011;61829;53.286;10.434;2022-09-13T18:39:17;9.30;;;1.52;;
73557;SDS011;61829;53.286;10.434;2022-09-13T18:41:46;5.95;;;1.30;;
73557;SDS011;61829;53.286;10.434;2022-09-13T18:44:13;10.25;;;1.33;;
73557;SDS011;61829;53.286;10.434;2022-09-13T18:46:41;6.95;;;1.30;;
73557;SDS011;61829;53.286;10.434;2022-09-13T18:49:08;5.40;;;1.20;;
73557;SDS011;61829;53.286;10.434;2022-09-13T18:51:36;4.63;;;1.17;;
73557;SDS011;61829;53.286;10.434;2022-09-13T18:54:06;5.10;;;1.15;;
73557;SDS011;61829;53.286;10.434;2022-09-13T18:56:35;6.18;;;1.23;;
73557;SDS011;61829;53.286;10.434;2022-09-13T18:59:03;9.32;;;1.40;;
73557;SDS011;61829;53.286;10.434;2022-09-13T19:01:32;4.00;;;1.30;;
73557;SDS011;61829;53.286;10.434;2022-09-13T19:04:04;6.78;;;1.30;;
73557;SDS011;61829;53.286;10.434;2022-09-13T19:06:37;10.63;;;1.40;;
73557;SDS011;61829;53.286;10.434;2022-09-13T19:09:07;7.45;;;1.40;;
73557;SDS011;61829;53.286;10.434;2022-09-13T19:11:35;5.53;;;2.17;;
73557;SDS011;61829;53.286;10.434;2022-09-13T19:14:05;5.50;;;1.48;;
73557;SDS011;61829;53.286;10.434;2022-09-13T19:16:32;6.10;;;1.38;;
73557;SDS011;61829;53.286;10.434;2022-09-13T19:18:59;8.63;;;1.00;;
73557;SDS011;61829;53.286;10.434;2022-09-13T19:21:28;4.43;;;1.38;;
73557;SDS011;61829;53.286;10.434;2022-09-13T19:23:56;8.68;;;1.30;;
73557;SDS011;61829;53.286;10.434;2022-09-13T19:26:26;4.15;;;1.00;;
73557;SDS011;61829;53.286;10.434;2022-09-13T19:29:04;5.85;;;1.17;;
73557;SDS011;61829;53.286;10.434;2022-09-13T19:31:34;7.68;;;1.17;;
73557;SDS011;61829;53.286;10.434;2022-09-13T19:34:04;6.53;;;1.02;;
73557;SDS011;61829;53.286;10.434;2022-09-13T19:36:35;7.55;;;1.38;;
73557;SDS011;61829;53.286;10.434;2022-09-13T19:39:33;6.80;;;1.70;;
73557;SDS011;61829;53.286;10.434;2022-09-13T19:41:59;13.75;;;2.97;;